Time;durP1;ratioP1;P1;durP2;ratioP2;P2;SDS_P1;SDS_P2;PMS_P1;PMS_P2;Temp;Humidity;BMP_temperature;BMP_pressure;BME280_temperature;BME280_humidity;BME280_pressure;Samples;Min_cycle;Max_cycle;Signal;HPM_P1;HPM_P2
2023/01/22 00:01:57;;;;;;;35.58;12.45;;;;;;;;;;4948886;28;20027;-73
2023/01/22 00:04:22;;;;;;;23.27;10.20;;;;;;;;;;4965798;28;20031;-73
2023/01/22 00:06:47;;;;;;;23.25;8.07;;;;;;;;;;4981268;28;20051;-73
2023/01/22 00:09:14;;;;;;;27.45;10.55;;;;;;;;;;4963424;28;20056;-73
2023/01/22 00:11:40;;;;;;;24.48;9.65;;;;;;;;;;4962529;28;20046;-73
2023/01/22 00:14:05;;;;;;;25.33;9.48;;;;;;;;;;4969285;28;20609;-73
2023/01/22 00:16:30;;;;;;;33.38;11.15;;;;;;;;;;4970188;28;20066;-73
2023/01/22 00:18:56;;;;;;;24.25;8.77;;;;;;;;;;4949831;28;20043;-73
2023/01/22 00:21:21;;;;;;;43.17;11.63;;;;;;;;;;4969925;28;20028;-73
2023/01/22 00:23:46;;;;;;;34.72;12.82;;;;;;;;;;4969882;28;20043;-73
2023/01/22 00:26:14;;;;;;;30.13;11.15;;;;;;;;;;4966209;28;20015;-73
2023/01/22 00:28:40;;;;;;;28.05;9.30;;;;;;;;;;4966382;28;20029;-73
2023/01/22 00:31:06;;;;;;;37.35;12.88;;;;;;;;;;4969403;28;20038;-73
2023/01/22 00:33:32;;;;;;;42.10;13.80;;;;;;;;;;4969177;28;20035;-73
2023/01/22 00:36:06;;;;;;;41.95;13.85;;;;;;;;;;4967848;28;20080;-73
2023/01/22 00:38:31;;;;;;;;;;;;;;;;;;4970360;28;20050;-73
2023/01/22 00:41:01;;;;;;;27.73;10.02;;;;;;;;;;4958243;28;19914;-73
2023/01/22 00:43:26;;;;;;;38.35;12.85;;;;;;;;;;4967777;28;20639;-73
2023/01/22 00:45:51;;;;;;;37.10;12.52;;;;;;;;;;4968583;28;20080;-73
2023/01/22 00:48:16;;;;;;;31.80;10.15;;;;;;;;;;4969266;28;20165;-73
2023/01/22 00:50:42;;;;;;;27.42;10.63;;;;;;;;;;4968997;28;20042;-73
2023/01/22 00:53:07;;;;;;;36.15;13.73;;;;;;;;;;4967634;28;20024;-73
2023/01/22 00:55:33;;;;;;;32.17;10.43;;;;;;;;;;4947282;28;20027;-73
2023/01/22 00:57:58;;;;;;;30.52;10.65;;;;;;;;;;4956710;28;20751;-73
2023/01/22 01:00:23;;;;;;;30.00;10.00;;;;;;;;;;4967890;28;20027;-73
2023/01/22 01:05:32;;;;;;;26.25;9.63;;;;;;;;;;4968636;28;20053;-73
2023/01/22 01:07:58;;;;;;;28.02;12.20;;;;;;;;;;4964505;28;20022;-73
2023/01/22 01:10:23;;;;;;;16.52;8.13;;;;;;;;;;4964818;28;20089;-73
2023/01/22 01:12:49;;;;;;;34.35;12.80;;;;;;;;;;4969215;28;20080;-73
2023/01/22 01:15:14;;;;;;;29.35;8.75;;;;;;;;;;4962517;28;20763;-73
2023/01/22 01:17:40;;;;;;;32.03;11.65;;;;;;;;;;4966555;28;20102;-73
2023/01/22 01:20:06;;;;;;;29.83;10.65;;;;;;;;;;4968917;28;20106;-73
2023/01/22 01:22:31;;;;;;;29.10;10.38;;;;;;;;;;4967340;28;20038;-73
2023/01/22 01:24:56;;;;;;;41.03;13.30;;;;;;;;;;4983760;28;20458;-73
2023/01/22 01:27:21;;;;;;;33.10;12.45;;;;;;;;;;4966938;28;20034;-73
2023/01/22 01:29:47;;;;;;;16.67;7.68;;;;;;;;;;4982190;28;20089;-73
2023/01/22 01:32:12;;;;;;;28.52;9.27;;;;;;;;;;4964779;28;20026;-73
2023/01/22 01:34:37;;;;;;;34.30;12.32;;;;;;;;;;4949474;28;20034;-73
2023/01/22 01:37:03;;;;;;;20.48;8.80;;;;;;;;;;4962069;28;20041;-73
2023/01/22 01:39:28;;;;;;;21.42;8.57;;;;;;;;;;4968725;28;20034;-73
2023/01/22 01:41:53;;;;;;;33.88;11.95;;;;;;;;;;4967629;28;20817;-73
2023/01/22 01:44:21;;;;;;;28.40;10.52;;;;;;;;;;4968463;28;20022;-73
2023/01/22 01:46:54;;;;;;;27.05;9.30;;;;;;;;;;4960501;28;20960;-73
2023/01/22 01:49:31;;;;;;;29.55;10.15;;;;;;;;;;4950694;28;20023;-73
2023/01/22 01:52:02;;;;;;;23.92;7.47;;;;;;;;;;4967326;28;20047;-73
2023/01/22 01:54:29;;;;;;;27.83;10.40;;;;;;;;;;4952432;28;20058;-73
2023/01/22 01:57:02;;;;;;;22.10;8.63;;;;;;;;;;4962705;28;20459;-73
2023/01/22 01:59:32;;;;;;;38.15;12.18;;;;;;;;;;4951543;28;20063;-73
2023/01/22 02:01:58;;;;;;;35.60;11.82;;;;;;;;;;4966530;28;20018;-73
2023/01/22 02:04:25;;;;;;;29.60;11.68;;;;;;;;;;4980676;28;20059;-73
2023/01/22 02:06:51;;;;;;;24.52;8.02;;;;;;;;;;4982741;28;20515;-73
2023/01/22 02:09:16;;;;;;;26.88;9.98;;;;;;;;;;4967365;28;20082;-73
2023/01/22 02:11:42;;;;;;;30.63;11.55;;;;;;;;;;4967597;28;20035;-73
2023/01/22 02:14:13;;;;;;;33.40;11.13;;;;;;;;;;4958277;28;20027;-73
2023/01/22 02:16:38;;;;;;;39.38;13.82;;;;;;;;;;4950423;28;20022;-74
2023/01/22 02:19:04;;;;;;;32.90;10.85;;;;;;;;;;4967482;28;20042;-73
2023/01/22 02:21:32;;;;;;;36.60;10.30;;;;;;;;;;4967329;28;20125;-73
2023/01/22 02:23:58;;;;;;;22.45;8.80;;;;;;;;;;4966166;28;20515;-73
2023/01/22 02:26:23;;;;;;;27.77;9.02;;;;;;;;;;4967370;28;20025;-73
2023/01/22 02:28:48;;;;;;;29.98;9.88;;;;;;;;;;4950823;28;20026;-73
2023/01/22 02:31:14;;;;;;;33.85;12.82;;;;;;;;;;4965701;28;20522;-73
2023/01/22 02:33:39;;;;;;;40.78;12.30;;;;;;;;;;4960367;28;20058;-73
2023/01/22 02:36:05;;;;;;;26.42;10.70;;;;;;;;;;4963360;28;20031;-73
2023/01/22 02:38:31;;;;;;;40.00;11.00;;;;;;;;;;4967022;28;20082;-73
2023/01/22 02:40:56;;;;;;;35.42;11.10;;;;;;;;;;4958450;28;20033;-73
2023/01/22 02:43:21;;;;;;;30.30;8.85;;;;;;;;;;4961071;28;20503;-73
2023/01/22 02:45:46;;;;;;;40.45;13.70;;;;;;;;;;4941307;28;20076;-73
2023/01/22 02:48:12;;;;;;;47.47;15.30;;;;;;;;;;4965576;28;20121;-73
2023/01/22 02:50:37;;;;;;;21.35;6.93;;;;;;;;;;4967346;28;20121;-73
2023/01/22 02:53:02;;;;;;;42.67;15.45;;;;;;;;;;4968403;28;20030;-73
2023/01/22 02:55:28;;;;;;;35.10;12.45;;;;;;;;;;4962642;28;20137;-73
2023/01/22 02:57:53;;;;;;;40.22;12.32;;;;;;;;;;4949689;28;20386;-73
2023/01/22 03:00:19;;;;;;;44.53;13.35;;;;;;;;;;4964568;28;20110;-73
2023/01/22 03:02:44;;;;;;;41.47;13.13;;;;;;;;;;4966593;28;20043;-73
2023/01/22 03:05:09;;;;;;;42.53;13.23;;;;;;;;;;4964920;28;20018;-73
2023/01/22 03:07:41;;;;;;;28.60;9.40;;;;;;;;;;4960775;28;20110;-73
2023/01/22 03:10:19;;;;;;;37.00;13.00;;;;;;;;;;4961235;28;20030;-73
2023/01/22 03:23:49;;;;;;;45.05;14.27;;;;;;;;;;4960420;28;20073;-73
2023/01/22 03:26:14;;;;;;;31.30;11.45;;;;;;;;;;4965071;28;20026;-73
2023/01/22 03:28:40;;;;;;;44.97;13.27;;;;;;;;;;4965648;28;20027;-73
2023/01/22 03:31:05;;;;;;;34.58;11.98;;;;;;;;;;4966004;28;20618;-73
2023/01/22 03:33:31;;;;;;;43.33;14.05;;;;;;;;;;4957812;28;20515;-73
2023/01/22 03:36:05;;;;;;;31.02;11.55;;;;;;;;;;4945482;28;20035;-73
2023/01/22 03:38:31;;;;;;;31.52;11.25;;;;;;;;;;4963263;28;20055;-73
2023/01/22 03:41:01;;;;;;;30.95;10.00;;;;;;;;;;4965783;28;20015;-73
2023/01/22 03:43:27;;;;;;;39.60;11.65;;;;;;;;;;4956648;28;20767;-73
2023/01/22 03:45:52;;;;;;;19.70;8.73;;;;;;;;;;4973911;28;20055;-73
2023/01/22 03:48:17;;;;;;;38.83;11.68;;;;;;;;;;4955524;28;20050;-73
2023/01/22 03:50:43;;;;;;;33.17;11.27;;;;;;;;;;4961802;28;20101;-73
2023/01/22 03:53:08;;;;;;;31.70;11.38;;;;;;;;;;4975626;28;20418;-73
2023/01/22 03:55:33;;;;;;;32.72;9.80;;;;;;;;;;4969588;28;20019;-73
2023/01/22 03:57:58;;;;;;;34.20;11.60;;;;;;;;;;4953189;28;20054;-73
2023/01/22 04:00:24;;;;;;;30.17;7.88;;;;;;;;;;4965837;28;20046;-73
2023/01/22 04:02:49;;;;;;;36.35;12.52;;;;;;;;;;4965721;28;20113;-73
2023/01/22 04:05:15;;;;;;;44.75;14.98;;;;;;;;;;4974019;28;20046;-75
2023/01/22 04:07:40;;;;;;;31.45;10.68;;;;;;;;;;4965344;28;20030;-72
2023/01/22 04:10:06;;;;;;;20.85;7.78;;;;;;;;;;4964838;28;20125;-73
2023/01/22 04:12:31;;;;;;;36.33;11.55;;;;;;;;;;4965895;28;20887;-73
2023/01/22 04:14:56;;;;;;;58.53;15.95;;;;;;;;;;4965754;28;20035;-73
2023/01/22 04:17:22;;;;;;;24.48;10.23;;;;;;;;;;4950895;28;20078;-73
2023/01/22 04:19:47;;;;;;;40.05;12.38;;;;;;;;;;4962894;28;20487;-73
2023/01/22 04:22:12;;;;;;;33.78;10.82;;;;;;;;;;4964571;28;20512;-73
2023/01/22 04:24:37;;;;;;;34.92;11.57;;;;;;;;;;4965580;28;20039;-73
2023/01/22 04:27:03;;;;;;;28.88;10.88;;;;;;;;;;4964335;28;20118;-73
2023/01/22 04:29:28;;;;;;;20.45;8.52;;;;;;;;;;4964418;28;20411;-73
2023/01/22 04:31:53;;;;;;;16.30;7.57;;;;;;;;;;4964287;28;20035;-73
2023/01/22 04:34:19;;;;;;;24.83;8.82;;;;;;;;;;4960863;28;20035;-73
2023/01/22 04:36:44;;;;;;;26.35;8.60;;;;;;;;;;4966134;28;20047;-73
2023/01/22 04:39:09;;;;;;;26.05;8.27;;;;;;;;;;4960897;28;20057;-73
2023/01/22 04:41:35;;;;;;;40.40;12.57;;;;;;;;;;4965889;28;20046;-73
2023/01/22 04:44:00;;;;;;;31.20;9.93;;;;;;;;;;4964038;28;20031;-73
2023/01/22 04:46:25;;;;;;;27.00;9.52;;;;;;;;;;4963419;28;20136;-73
2023/01/22 04:48:50;;;;;;;41.22;12.15;;;;;;;;;;4965898;28;20136;-73
2023/01/22 04:51:16;;;;;;;30.02;11.85;;;;;;;;;;4965283;28;20039;-73
2023/01/22 04:53:41;;;;;;;28.73;8.80;;;;;;;;;;4966772;28;20051;-73
2023/01/22 04:56:06;;;;;;;31.65;10.60;;;;;;;;;;4964038;28;20027;-73
2023/01/22 04:58:31;;;;;;;27.40;10.07;;;;;;;;;;4954435;28;20556;-73
2023/01/22 05:00:57;;;;;;;28.88;8.73;;;;;;;;;;4964068;28;20431;-72
2023/01/22 05:03:22;;;;;;;14.68;6.35;;;;;;;;;;4968154;28;20043;-73
2023/01/22 05:05:48;;;;;;;23.85;6.75;;;;;;;;;;4969114;28;20042;-73
2023/01/22 05:08:13;;;;;;;30.95;10.80;;;;;;;;;;4966601;28;20026;-73
2023/01/22 05:10:39;;;;;;;18.30;6.68;;;;;;;;;;4969218;28;20089;-72
2023/01/22 05:13:05;;;;;;;50.75;14.77;;;;;;;;;;4968505;28;20039;-73
2023/01/22 05:15:31;;;;;;;32.13;10.32;;;;;;;;;;4968775;28;20101;-73
2023/01/22 05:17:56;;;;;;;39.25;12.07;;;;;;;;;;4968879;28;20623;-73
2023/01/22 05:20:21;;;;;;;15.05;6.72;;;;;;;;;;4968501;28;20043;-73
2023/01/22 05:22:47;;;;;;;17.60;6.07;;;;;;;;;;4961430;28;20743;-73
2023/01/22 05:25:12;;;;;;;23.40;9.23;;;;;;;;;;4967632;28;20066;-73
2023/01/22 05:27:38;;;;;;;38.80;11.10;;;;;;;;;;4968551;28;20038;-73
2023/01/22 05:30:04;;;;;;;36.92;12.52;;;;;;;;;;4968446;28;20070;-73
2023/01/22 05:32:30;;;;;;;27.70;8.95;;;;;;;;;;4968881;28;20586;-73
2023/01/22 05:34:55;;;;;;;32.22;11.07;;;;;;;;;;4967671;28;20094;-73
2023/01/22 05:37:20;;;;;;;22.35;9.35;;;;;;;;;;4963228;28;20034;-73
2023/01/22 05:39:46;;;;;;;24.40;7.90;;;;;;;;;;4968677;28;20089;-73
2023/01/22 05:42:13;;;;;;;26.02;8.52;;;;;;;;;;4966648;28;20518;-73
2023/01/22 05:44:39;;;;;;;25.60;9.38;;;;;;;;;;4966638;28;20050;-73
2023/01/22 05:47:04;;;;;;;18.60;7.63;;;;;;;;;;4967813;28;20046;-73
2023/01/22 05:49:29;;;;;;;12.80;5.20;;;;;;;;;;4982984;28;20097;-73
2023/01/22 05:51:55;;;;;;;16.83;7.90;;;;;;;;;;4980897;28;20119;-73
2023/01/22 05:54:20;;;;;;;22.00;8.07;;;;;;;;;;4973195;28;20043;-73
2023/01/22 05:56:45;;;;;;;20.42;6.85;;;;;;;;;;4975077;28;20126;-73
2023/01/22 05:59:11;;;;;;;17.42;6.78;;;;;;;;;;4968122;28;20035;-73
2023/01/22 06:01:36;;;;;;;24.08;9.20;;;;;;;;;;4950591;28;20031;-73
2023/01/22 06:04:02;;;;;;;32.08;9.27;;;;;;;;;;4982480;28;20132;-73
2023/01/22 06:06:27;;;;;;;31.27;10.88;;;;;;;;;;4955425;28;21186;-73
2023/01/22 06:08:52;;;;;;;26.38;9.98;;;;;;;;;;4966727;28;20039;-73
2023/01/22 06:11:18;;;;;;;34.47;10.95;;;;;;;;;;4967133;28;20035;-73
2023/01/22 06:13:43;;;;;;;31.25;9.70;;;;;;;;;;4967976;28;20431;-73
2023/01/22 06:16:09;;;;;;;21.58;8.45;;;;;;;;;;4967499;28;20050;-73
2023/01/22 06:18:35;;;;;;;26.70;10.52;;;;;;;;;;4967908;28;20073;-73
2023/01/22 06:21:02;;;;;;;29.98;10.15;;;;;;;;;;4966688;28;20173;-73
2023/01/22 06:23:28;;;;;;;26.65;9.27;;;;;;;;;;4937989;28;20031;-73
2023/01/22 06:25:55;;;;;;;21.08;8.82;;;;;;;;;;4965841;28;20034;-73
2023/01/22 06:28:21;;;;;;;23.45;8.43;;;;;;;;;;4966485;28;20035;-73
2023/01/22 06:30:47;;;;;;;30.83;10.00;;;;;;;;;;4966407;28;20061;-73
2023/01/22 06:33:12;;;;;;;34.25;12.45;;;;;;;;;;4967555;28;20748;-73
2023/01/22 06:35:37;;;;;;;16.98;6.90;;;;;;;;;;4966866;28;20110;-73
2023/01/22 06:38:03;;;;;;;25.48;9.95;;;;;;;;;;4959041;28;20015;-73
2023/01/22 06:40:28;;;;;;;27.52;10.43;;;;;;;;;;4964353;28;20039;-73
2023/01/22 06:42:54;;;;;;;24.77;8.48;;;;;;;;;;4964409;28;20042;-73
2023/01/22 06:45:19;;;;;;;27.38;9.65;;;;;;;;;;4967308;28;20140;-73
2023/01/22 06:47:45;;;;;;;26.48;8.70;;;;;;;;;;4948843;28;20451;-73
2023/01/22 06:50:11;;;;;;;22.38;9.35;;;;;;;;;;4965532;28;20037;-73
2023/01/22 06:52:37;;;;;;;19.35;8.07;;;;;;;;;;4964627;28;20116;-73
2023/01/22 06:55:03;;;;;;;24.15;9.30;;;;;;;;;;4955865;28;20137;-73
2023/01/22 06:57:28;;;;;;;17.95;7.72;;;;;;;;;;4955749;28;20133;-73
2023/01/22 06:59:53;;;;;;;23.45;9.15;;;;;;;;;;4945319;28;20053;-74
2023/01/22 07:02:19;;;;;;;19.75;6.93;;;;;;;;;;4966784;28;20117;-73
2023/01/22 07:04:44;;;;;;;28.42;9.90;;;;;;;;;;4966523;28;20026;-73
2023/01/22 07:07:10;;;;;;;22.38;8.15;;;;;;;;;;4966919;28;20093;-73
2023/01/22 07:09:35;;;;;;;25.65;8.52;;;;;;;;;;4965498;28;20534;-73
2023/01/22 07:12:01;;;;;;;24.02;8.85;;;;;;;;;;4966797;28;20509;-73
2023/01/22 07:14:26;;;;;;;28.30;8.73;;;;;;;;;;4955551;28;20047;-73
2023/01/22 07:16:52;;;;;;;25.73;10.30;;;;;;;;;;4963290;28;20027;-73
2023/01/22 07:19:17;;;;;;;25.15;10.23;;;;;;;;;;4981039;28;20538;-73
2023/01/22 07:21:42;;;;;;;26.75;9.07;;;;;;;;;;4965551;28;20041;-73
2023/01/22 07:24:09;;;;;;;34.40;11.70;;;;;;;;;;4965129;28;20039;-73
2023/01/22 07:26:34;;;;;;;28.42;10.65;;;;;;;;;;4966355;28;20065;-73
2023/01/22 07:29:01;;;;;;;33.38;11.00;;;;;;;;;;4959750;28;20053;-73
2023/01/22 07:31:27;;;;;;;20.33;7.70;;;;;;;;;;4959126;28;20039;-73
2023/01/22 07:33:53;;;;;;;26.65;10.65;;;;;;;;;;4964864;28;20092;-73
2023/01/22 07:36:18;;;;;;;32.13;11.65;;;;;;;;;;4966091;28;20407;-73
2023/01/22 07:38:43;;;;;;;34.78;12.75;;;;;;;;;;4980715;28;20746;-73
2023/01/22 07:41:08;;;;;;;21.35;8.23;;;;;;;;;;4977577;28;20034;-73
2023/01/22 07:43:34;;;;;;;30.10;10.20;;;;;;;;;;4965385;28;20054;-73
2023/01/22 07:46:01;;;;;;;31.05;10.43;;;;;;;;;;4964237;28;20116;-73
2023/01/22 07:48:26;;;;;;;26.23;8.18;;;;;;;;;;4965488;28;20578;-73
2023/01/22 07:50:51;;;;;;;33.78;12.40;;;;;;;;;;4958476;28;20043;-73
2023/01/22 07:53:17;;;;;;;27.00;9.00;;;;;;;;;;4962258;28;20030;-73
2023/01/22 07:55:43;;;;;;;30.98;10.05;;;;;;;;;;4966718;28;20494;-73
2023/01/22 07:58:13;;;;;;;20.73;8.82;;;;;;;;;;4957310;28;20094;-73
2023/01/22 08:00:38;;;;;;;20.60;7.68;;;;;;;;;;4947476;28;20046;-73
2023/01/22 08:03:04;;;;;;;31.40;11.88;;;;;;;;;;4960414;28;20038;-73
2023/01/22 08:05:30;;;;;;;23.90;9.15;;;;;;;;;;4941068;28;20043;-73
2023/01/22 08:07:55;;;;;;;33.90;11.65;;;;;;;;;;4964396;28;20050;-73
2023/01/22 08:10:20;;;;;;;16.17;6.13;;;;;;;;;;4957050;28;20042;-73
2023/01/22 08:12:46;;;;;;;16.45;5.35;;;;;;;;;;4964167;28;20057;-73
2023/01/22 08:15:11;;;;;;;27.52;10.00;;;;;;;;;;4964118;28;20038;-73
2023/01/22 08:17:38;;;;;;;24.98;9.32;;;;;;;;;;4946958;28;20061;-73
2023/01/22 08:20:05;;;;;;;18.23;7.72;;;;;;;;;;4961798;28;20218;-73
2023/01/22 08:22:30;;;;;;;21.63;7.90;;;;;;;;;;4942887;28;20031;-73
2023/01/22 08:24:55;;;;;;;27.83;11.32;;;;;;;;;;4962248;28;20061;-73
2023/01/22 08:27:21;;;;;;;16.00;7.32;;;;;;;;;;4939869;28;20047;-73
2023/01/22 08:29:48;;;;;;;25.45;9.95;;;;;;;;;;4961207;28;20042;-73
2023/01/22 08:32:14;;;;;;;20.08;6.72;;;;;;;;;;4945941;28;20030;-73
2023/01/22 08:34:39;;;;;;;26.38;10.45;;;;;;;;;;4964555;28;20035;-73
2023/01/22 08:37:06;;;;;;;22.20;8.43;;;;;;;;;;4964147;28;20050;-73
2023/01/22 08:39:32;;;;;;;18.95;8.45;;;;;;;;;;4961215;28;20162;-73
2023/01/22 08:41:57;;;;;;;17.45;6.28;;;;;;;;;;4951397;28;20125;-73
2023/01/22 08:44:23;;;;;;;13.10;6.28;;;;;;;;;;4959782;28;20511;-73
2023/01/22 08:46:49;;;;;;;18.50;7.15;;;;;;;;;;4958648;28;20061;-73
2023/01/22 08:49:15;;;;;;;19.77;7.72;;;;;;;;;;4949523;28;20043;-73
2023/01/22 08:51:41;;;;;;;19.80;8.60;;;;;;;;;;4962495;28;20046;-73
2023/01/22 08:54:06;;;;;;;21.55;8.95;;;;;;;;;;4965333;28;20133;-73
2023/01/22 08:56:32;;;;;;;21.75;8.05;;;;;;;;;;4959158;28;20070;-73
2023/01/22 08:58:59;;;;;;;10.38;4.53;;;;;;;;;;4960752;28;20050;-73
2023/01/22 09:01:25;;;;;;;23.05;9.85;;;;;;;;;;4946918;28;20080;-73
2023/01/22 09:03:50;;;;;;;23.30;9.27;;;;;;;;;;4940096;28;21011;-73
2023/01/22 09:06:15;;;;;;;25.05;8.98;;;;;;;;;;4957949;28;20046;-73
2023/01/22 09:08:41;;;;;;;18.50;7.53;;;;;;;;;;4958704;28;20045;-73
2023/01/22 09:11:06;;;;;;;18.92;7.78;;;;;;;;;;4964860;28;20029;-73
2023/01/22 09:13:32;;;;;;;21.90;6.47;;;;;;;;;;4965459;28;20053;-72
2023/01/22 09:15:58;;;;;;;17.60;8.10;;;;;;;;;;4957615;28;20047;-72
2023/01/22 09:18:24;;;;;;;23.65;10.55;;;;;;;;;;4956067;28;20122;-73
2023/01/22 09:20:49;;;;;;;21.38;7.50;;;;;;;;;;4962889;28;20126;-73
2023/01/22 09:23:15;;;;;;;16.38;7.40;;;;;;;;;;4960474;28;20055;-73
2023/01/22 09:25:40;;;;;;;18.98;8.85;;;;;;;;;;4955719;28;20126;-73
2023/01/22 09:28:07;;;;;;;13.93;7.10;;;;;;;;;;4958207;28;20071;-73
2023/01/22 09:30:38;;;;;;;23.50;10.63;;;;;;;;;;4953924;28;20058;-73
2023/01/22 09:33:03;;;;;;;21.92;9.00;;;;;;;;;;4954170;28;20570;-73
2023/01/22 09:35:28;;;;;;;20.55;8.43;;;;;;;;;;4942552;28;20054;-73
2023/01/22 09:37:54;;;;;;;18.13;9.05;;;;;;;;;;4929814;28;20034;-73
2023/01/22 09:40:28;;;;;;;18.65;8.63;;;;;;;;;;4938300;28;20049;-73
2023/01/22 09:43:03;;;;;;;17.75;8.00;;;;;;;;;;4938211;28;20050;-73
2023/01/22 09:45:29;;;;;;;20.13;8.68;;;;;;;;;;4959542;28;20547;-73
2023/01/22 09:47:59;;;;;;;14.20;6.32;;;;;;;;;;4942683;28;20125;-73
2023/01/22 09:50:30;;;;;;;20.67;8.50;;;;;;;;;;4958598;28;20031;-73
2023/01/22 09:53:00;;;;;;;23.90;10.55;;;;;;;;;;4942841;28;20034;-73
2023/01/22 09:55:31;;;;;;;19.63;9.70;;;;;;;;;;4946325;28;20046;-76
2023/01/22 09:58:00;;;;;;;10.18;4.63;;;;;;;;;;4957779;28;20036;-73
2023/01/22 10:00:52;;;;;;;15.70;6.50;;;;;;;;;;4946227;28;20053;-72
2023/01/22 10:03:24;;;;;;;24.25;9.05;;;;;;;;;;4935338;28;20065;-73
2023/01/22 10:06:18;;;;;;;20.57;8.63;;;;;;;;;;4954165;28;20054;-73
2023/01/22 10:08:58;;;;;;;24.98;10.52;;;;;;;;;;4953405;28;20039;-73
2023/01/22 10:11:24;;;;;;;21.98;7.93;;;;;;;;;;4960557;28;20035;-73
2023/01/22 10:13:54;;;;;;;17.65;6.78;;;;;;;;;;4952598;28;20113;-73
2023/01/22 10:16:20;;;;;;;19.25;7.32;;;;;;;;;;4951201;28;20046;-72
2023/01/22 10:18:51;;;;;;;18.42;7.35;;;;;;;;;;4942626;28;20045;-73
2023/01/22 10:21:20;;;;;;;20.73;8.27;;;;;;;;;;4964150;28;20053;-73
2023/01/22 10:23:47;;;;;;;20.88;7.90;;;;;;;;;;4975808;28;20528;-73
2023/01/22 10:26:17;;;;;;;16.08;6.43;;;;;;;;;;4949765;28;20035;-73
2023/01/22 10:28:45;;;;;;;22.20;8.45;;;;;;;;;;4949614;28;20048;-74
2023/01/22 10:31:45;;;;;;;17.58;7.85;;;;;;;;;;4957895;28;20121;-70
2023/01/22 10:34:35;;;;;;;16.00;6.63;;;;;;;;;;4961828;28;20039;-72
2023/01/22 10:37:13;;;;;;;19.50;8.27;;;;;;;;;;4964553;28;20051;-74
2023/01/22 10:39:40;;;;;;;14.13;6.00;;;;;;;;;;4953160;28;20049;-72
2023/01/22 10:42:05;;;;;;;19.30;7.45;;;;;;;;;;4962115;28;20042;-76
2023/01/22 10:44:30;;;;;;;12.45;6.32;;;;;;;;;;4939488;28;20050;-75
2023/01/22 10:47:08;;;;;;;18.27;7.57;;;;;;;;;;4960584;28;20134;-72
2023/01/22 10:49:33;;;;;;;14.77;5.70;;;;;;;;;;4965502;28;20056;-71
2023/01/22 10:52:04;;;;;;;23.25;9.35;;;;;;;;;;4962223;28;20059;-72
2023/01/22 10:54:42;;;;;;;19.85;9.00;;;;;;;;;;4961858;28;20054;-71
2023/01/22 10:57:19;;;;;;;22.75;7.88;;;;;;;;;;4956410;28;20468;-70
2023/01/22 11:00:06;;;;;;;14.25;6.40;;;;;;;;;;4952295;28;20037;-70
2023/01/22 11:02:33;;;;;;;16.45;6.38;;;;;;;;;;4956272;28;20047;-70
2023/01/22 11:05:18;;;;;;;15.38;6.40;;;;;;;;;;4946050;28;20121;-71
2023/01/22 11:07:46;;;;;;;22.02;6.75;;;;;;;;;;4951976;28;20218;-72
2023/01/22 11:10:17;;;;;;;17.02;5.82;;;;;;;;;;4951628;28;20035;-71
2023/01/22 11:12:48;;;;;;;15.43;7.03;;;;;;;;;;4945062;28;20062;-70
2023/01/22 11:15:33;;;;;;;10.65;5.55;;;;;;;;;;4959959;28;20050;-72
2023/01/22 11:18:02;;;;;;;20.85;7.72;;;;;;;;;;4963160;28;20138;-72
2023/01/22 11:20:46;;;;;;;15.95;7.80;;;;;;;;;;4943563;28;20038;-72
2023/01/22 11:23:43;;;;;;;17.70;6.78;;;;;;;;;;4937546;28;20439;-71
2023/01/22 11:26:09;;;;;;;12.80;5.90;;;;;;;;;;4936587;28;20126;-72
2023/01/22 11:28:43;;;;;;;10.98;5.28;;;;;;;;;;4945346;28;20031;-70
2023/01/22 11:31:17;;;;;;;14.52;5.78;;;;;;;;;;4955342;28;20440;-70
2023/01/22 11:33:55;;;;;;;22.20;7.25;;;;;;;;;;4957933;28;20046;-70
2023/01/22 11:36:31;;;;;;;17.00;7.22;;;;;;;;;;4963689;28;20397;-70
2023/01/22 11:39:41;;;;;;;22.73;8.38;;;;;;;;;;4948345;28;20043;-70
2023/01/22 11:42:31;;;;;;;18.98;7.90;;;;;;;;;;4955301;28;20035;-70
2023/01/22 11:45:12;;;;;;;19.42;7.28;;;;;;;;;;4955844;28;20043;-70
2023/01/22 11:47:59;;;;;;;18.27;8.00;;;;;;;;;;4948918;28;20832;-70
2023/01/22 11:50:50;;;;;;;19.95;7.88;;;;;;;;;;4952252;28;20031;-70
2023/01/22 11:53:28;;;;;;;27.13;9.60;;;;;;;;;;4963610;28;20045;-70
2023/01/22 11:56:04;;;;;;;20.20;8.25;;;;;;;;;;4958551;28;20504;-70
2023/01/22 11:58:44;;;;;;;23.60;10.35;;;;;;;;;;4946888;28;20109;-72
2023/01/22 12:01:22;;;;;;;14.63;6.68;;;;;;;;;;4960729;28;20038;-72
2023/01/22 12:04:06;;;;;;;21.10;8.25;;;;;;;;;;4963600;28;20042;-72
2023/01/22 12:06:56;;;;;;;17.52;8.07;;;;;;;;;;4960145;28;20050;-71
2023/01/22 12:09:43;;;;;;;24.75;9.32;;;;;;;;;;4963039;28;20064;-71
2023/01/22 12:12:40;;;;;;;18.70;7.88;;;;;;;;;;4957557;28;20050;-71
2023/01/22 12:15:31;;;;;;;20.13;8.45;;;;;;;;;;4960721;28;20038;-70
2023/01/22 12:18:02;;;;;;;23.48;8.25;;;;;;;;;;4953064;28;20055;-71
2023/01/22 12:21:03;;;;;;;22.70;8.95;;;;;;;;;;4966680;28;20089;-70
2023/01/22 12:23:34;;;;;;;20.48;8.98;;;;;;;;;;4959748;28;20070;-70
2023/01/22 12:26:10;;;;;;;22.08;8.45;;;;;;;;;;4957779;28;20042;-70
2023/01/22 12:28:54;;;;;;;19.02;7.90;;;;;;;;;;4963027;28;20046;-70
2023/01/22 12:31:27;;;;;;;14.60;6.50;;;;;;;;;;4966030;28;20058;-70
2023/01/22 12:33:53;;;;;;;29.52;8.55;;;;;;;;;;4961897;28;20043;-71
2023/01/22 12:36:23;;;;;;;23.85;9.02;;;;;;;;;;4963590;28;20065;-70
2023/01/22 12:39:25;;;;;;;19.80;8.68;;;;;;;;;;4963926;28;20039;-70
2023/01/22 12:42:07;;;;;;;21.83;8.30;;;;;;;;;;4965999;28;20058;-70
2023/01/22 12:44:51;;;;;;;21.30;9.07;;;;;;;;;;4954381;28;20054;-71
2023/01/22 12:47:25;;;;;;;23.27;8.52;;;;;;;;;;4955108;28;20428;-71
2023/01/22 12:49:52;;;;;;;26.83;10.23;;;;;;;;;;4966086;28;20117;-71
2023/01/22 12:52:30;;;;;;;16.48;7.18;;;;;;;;;;4967497;28;20027;-71
2023/01/22 12:54:56;;;;;;;21.60;8.60;;;;;;;;;;4954749;28;20133;-71
2023/01/22 12:57:24;;;;;;;22.10;8.68;;;;;;;;;;4964660;28;20037;-71
2023/01/22 12:59:55;;;;;;;18.25;7.03;;;;;;;;;;4965528;28;20134;-71
2023/01/22 13:02:34;;;;;;;24.67;9.13;;;;;;;;;;4963656;28;20035;-71
2023/01/22 13:05:11;;;;;;;23.15;9.63;;;;;;;;;;4967208;28;21005;-71
2023/01/22 13:07:39;;;;;;;24.05;9.05;;;;;;;;;;4945379;28;20057;-71
2023/01/22 13:10:23;;;;;;;21.65;8.98;;;;;;;;;;4965365;28;20090;-71
2023/01/22 13:12:52;;;;;;;17.98;7.28;;;;;;;;;;4965322;28;20047;-71
2023/01/22 13:15:24;;;;;;;20.33;8.30;;;;;;;;;;4949325;28;20133;-71
2023/01/22 13:17:59;;;;;;;29.83;9.25;;;;;;;;;;4977800;28;20038;-71
2023/01/22 13:20:26;;;;;;;26.67;10.15;;;;;;;;;;4967046;28;20027;-71
2023/01/22 13:22:53;;;;;;;21.90;7.88;;;;;;;;;;4946029;28;20105;-71
2023/01/22 13:25:30;;;;;;;29.42;11.55;;;;;;;;;;4951001;28;20667;-71
2023/01/22 13:27:57;;;;;;;18.20;8.05;;;;;;;;;;4963686;28;20145;-72
2023/01/22 13:30:27;;;;;;;20.23;8.77;;;;;;;;;;4964768;28;20471;-72
2023/01/22 13:33:11;;;;;;;26.10;9.20;;;;;;;;;;4962162;28;20054;-71
2023/01/22 13:35:40;;;;;;;;;;;;;;;;;;4972910;28;20071;-71
2023/01/22 13:38:05;;;;;;;23.83;9.68;;;;;;;;;;4936605;28;19915;-70
2023/01/22 13:40:31;;;;;;;27.77;10.18;;;;;;;;;;4958454;28;20049;-70
2023/01/22 13:42:57;;;;;;;26.27;10.65;;;;;;;;;;4959986;28;20046;-70
2023/01/22 13:45:26;;;;;;;31.08;10.30;;;;;;;;;;4963019;28;20050;-71
2023/01/22 13:47:56;;;;;;;24.55;10.55;;;;;;;;;;4966430;28;20038;-69
2023/01/22 13:50:25;;;;;;;25.77;10.15;;;;;;;;;;4967960;28;20026;-70
2023/01/22 13:52:51;;;;;;;25.80;9.52;;;;;;;;;;4965069;28;20062;-71
2023/01/22 13:55:19;;;;;;;18.90;8.40;;;;;;;;;;4946178;28;20073;-71
2023/01/22 13:57:50;;;;;;;29.35;11.65;;;;;;;;;;4965999;28;20042;-70
2023/01/22 14:00:29;;;;;;;34.70;13.52;;;;;;;;;;4962222;28;20114;-70
2023/01/22 14:02:55;;;;;;;26.42;10.75;;;;;;;;;;4949434;28;20038;-70
2023/01/22 14:05:26;;;;;;;25.88;10.63;;;;;;;;;;4939542;28;20514;-70
2023/01/22 14:08:06;;;;;;;24.95;9.60;;;;;;;;;;4960696;28;20041;-70
2023/01/22 14:10:32;;;;;;;29.90;11.20;;;;;;;;;;4952811;28;20059;-70
2023/01/22 14:13:06;;;;;;;25.20;10.02;;;;;;;;;;4962734;28;20050;-70
2023/01/22 14:15:32;;;;;;;29.30;11.40;;;;;;;;;;4957524;28;20094;-70
2023/01/22 14:18:13;;;;;;;27.15;10.57;;;;;;;;;;4955631;28;20043;-70
2023/01/22 14:20:40;;;;;;;32.97;10.40;;;;;;;;;;4957016;28;20047;-70
2023/01/22 14:23:06;;;;;;;22.73;9.70;;;;;;;;;;4962745;28;20032;-70
2023/01/22 14:25:34;;;;;;;25.70;10.25;;;;;;;;;;4946540;28;20054;-70
2023/01/22 14:28:00;;;;;;;24.85;10.35;;;;;;;;;;4963433;28;20043;-70
2023/01/22 14:30:25;;;;;;;21.98;8.60;;;;;;;;;;4961308;28;20137;-69
2023/01/22 14:32:50;;;;;;;28.80;9.98;;;;;;;;;;4945815;28;20055;-70
2023/01/22 14:35:17;;;;;;;24.02;8.75;;;;;;;;;;4961647;28;20049;-70
2023/01/22 14:37:42;;;;;;;23.05;9.20;;;;;;;;;;4960273;28;20515;-71
2023/01/22 14:40:13;;;;;;;16.45;8.23;;;;;;;;;;4960224;28;20129;-72
2023/01/22 14:42:39;;;;;;;18.48;9.15;;;;;;;;;;4961397;28;20780;-71
2023/01/22 14:45:05;;;;;;;26.00;10.10;;;;;;;;;;4941168;28;20047;-70
2023/01/22 14:47:31;;;;;;;19.30;8.00;;;;;;;;;;4964484;28;20045;-71
2023/01/22 14:49:57;;;;;;;30.23;10.35;;;;;;;;;;4965520;28;20415;-71